Terminal Aerodrome Forecast
Issued by NWS New Orleans/Baton Rouge, LA

Home | Current Version | Previous Version | Text Only | Print | Product List | Glossary On
Versions: 1 2 3 4 5 6 7 8 9 10 11 12 13 14 15
000
FTUS44 KLIX 232336
TAFNEW
TAF
KNEW 232336Z 2400/2424 21017KT P6SM VCTS SCT025CB
     FM240500 00000KT P6SM BKN030
     FM241100 00000KT P6SM VCTS BKN020CB
     FM241400 VRB03KT P6SM BKN030
     FM241800 VRB03KT P6SM VCTS BKN040CB=

USA.gov is the U.S. government's official web portal to all federal, state and local government web resources and services.